sensor_id;sensor_type;location;lat;lon;timestamp;pressure;altitude;pressure_sealevel;temperature;humidity
71573;BME280;59408;51.032;9.410;2023-04-28T00:01:09;98972.13;;;7.13;67.78
71573;BME280;59408;51.032;9.410;2023-04-28T00:03:35;98980.25;;;7.13;67.78
71573;BME280;59408;51.032;9.410;2023-04-28T00:06:02;98971.31;;;7.12;67.44
71573;BME280;59408;51.032;9.410;2023-04-28T00:08:31;98977.53;;;7.13;67.23
71573;BME280;59408;51.032;9.410;2023-04-28T00:10:57;98971.63;;;7.11;67.59
71573;BME280;59408;51.032;9.410;2023-04-28T00:13:24;98972.28;;;7.08;68.32
71573;BME280;59408;51.032;9.410;2023-04-28T00:15:51;98975.63;;;7.05;68.43
71573;BME280;59408;51.032;9.410;2023-04-28T00:18:18;98974.34;;;7.02;68.07
71573;BME280;59408;51.032;9.410;2023-04-28T00:20:44;98974.50;;;7.06;68.46
71573;BME280;59408;51.032;9.410;2023-04-28T00:23:11;98964.28;;;7.03;68.86
71573;BME280;59408;51.032;9.410;2023-04-28T00:25:39;98951.53;;;7.03;68.84
71573;BME280;59408;51.032;9.410;2023-04-28T00:28:05;98950.72;;;7.03;69.04
71573;BME280;59408;51.032;9.410;2023-04-28T00:30:32;98949.94;;;7.02;69.21
71573;BME280;59408;51.032;9.410;2023-04-28T00:32:59;98944.03;;;7.00;69.74
71573;BME280;59408;51.032;9.410;2023-04-28T00:35:25;98936.22;;;6.99;69.69
71573;BME280;59408;51.032;9.410;2023-04-28T00:37:52;98927.78;;;7.00;68.80
71573;BME280;59408;51.032;9.410;2023-04-28T00:40:19;98942.59;;;7.03;68.72
71573;BME280;59408;51.032;9.410;2023-04-28T00:42:47;98937.47;;;7.01;68.73
71573;BME280;59408;51.032;9.410;2023-04-28T00:45:13;98931.28;;;7.01;68.90
71573;BME280;59408;51.032;9.410;2023-04-28T00:47:41;98922.81;;;7.02;69.02
71573;BME280;59408;51.032;9.410;2023-04-28T00:50:08;98926.31;;;7.03;69.73
71573;BME280;59408;51.032;9.410;2023-04-28T00:52:35;98926.31;;;7.03;69.12
71573;BME280;59408;51.032;9.410;2023-04-28T00:55:04;98923.91;;;7.01;69.64
71573;BME280;59408;51.032;9.410;2023-04-28T00:57:31;98918.84;;;7.00;69.27
71573;BME280;59408;51.032;9.410;2023-04-28T00:59:59;98913.41;;;7.00;69.82
71573;BME280;59408;51.032;9.410;2023-04-28T01:02:26;98914.53;;;6.99;70.89
71573;BME280;59408;51.032;9.410;2023-04-28T01:04:52;98912.44;;;6.96;70.38
71573;BME280;59408;51.032;9.410;2023-04-28T01:07:19;98908.13;;;6.95;70.95
71573;BME280;59408;51.032;9.410;2023-04-28T01:09:46;98902.88;;;6.98;70.08
71573;BME280;59408;51.032;9.410;2023-04-28T01:12:12;98892.84;;;6.99;70.51
71573;BME280;59408;51.032;9.410;2023-04-28T01:14:39;98891.53;;;6.96;71.64
71573;BME280;59408;51.032;9.410;2023-04-28T01:17:07;98891.25;;;6.98;72.16
71573;BME280;59408;51.032;9.410;2023-04-28T01:19:35;98886.13;;;6.96;71.71
71573;BME280;59408;51.032;9.410;2023-04-28T01:22:04;98892.84;;;6.99;71.34
71573;BME280;59408;51.032;9.410;2023-04-28T01:24:32;98887.41;;;6.99;71.64
71573;BME280;59408;51.032;9.410;2023-04-28T01:26:59;98882.31;;;6.97;71.82
71573;BME280;59408;51.032;9.410;2023-04-28T01:29:25;98873.69;;;6.95;71.46
71573;BME280;59408;51.032;9.410;2023-04-28T01:31:52;98878.78;;;6.97;70.28
71573;BME280;59408;51.032;9.410;2023-04-28T01:34:19;98866.84;;;6.98;71.26
71573;BME280;59408;51.032;9.410;2023-04-28T01:36:45;98868.44;;;6.99;70.56
71573;BME280;59408;51.032;9.410;2023-04-28T01:39:12;98870.03;;;7.00;70.28
71573;BME280;59408;51.032;9.410;2023-04-28T01:41:40;98871.16;;;6.99;71.20
71573;BME280;59408;51.032;9.410;2023-04-28T01:44:07;98873.38;;;6.97;71.60
71573;BME280;59408;51.032;9.410;2023-04-28T01:46:33;98869.84;;;6.96;70.89
71573;BME280;59408;51.032;9.410;2023-04-28T01:49:00;98861.41;;;6.98;71.51
71573;BME280;59408;51.032;9.410;2023-04-28T01:51:27;98873.06;;;6.98;72.18
71573;BME280;59408;51.032;9.410;2023-04-28T01:53:53;98855.81;;;6.94;73.01
71573;BME280;59408;51.032;9.410;2023-04-28T01:56:22;98861.09;;;6.91;73.93
71573;BME280;59408;51.032;9.410;2023-04-28T01:58:50;98859.81;;;6.88;74.23
71573;BME280;59408;51.032;9.410;2023-04-28T02:01:17;98859.00;;;6.87;74.12
71573;BME280;59408;51.032;9.410;2023-04-28T02:03:43;98863.00;;;6.90;73.70
71573;BME280;59408;51.032;9.410;2023-04-28T02:06:10;98857.59;;;6.90;73.00
71573;BME280;59408;51.032;9.410;2023-04-28T02:08:37;98856.78;;;6.89;72.86
71573;BME280;59408;51.032;9.410;2023-04-28T02:11:04;98858.38;;;6.91;73.03
71573;BME280;59408;51.032;9.410;2023-04-28T02:13:30;98856.47;;;6.91;72.00
71573;BME280;59408;51.032;9.410;2023-04-28T02:16:01;98848.66;;;6.89;73.52
71573;BME280;59408;51.032;9.410;2023-04-28T02:18:28;98847.38;;;6.87;73.91
71573;BME280;59408;51.032;9.410;2023-04-28T02:20:55;98859.31;;;6.86;73.63
71573;BME280;59408;51.032;9.410;2023-04-28T02:23:21;98861.53;;;6.84;73.59
71573;BME280;59408;51.032;9.410;2023-04-28T02:25:48;98858.84;;;6.84;74.87
71573;BME280;59408;51.032;9.410;2023-04-28T02:28:14;98850.56;;;6.80;75.19
71573;BME280;59408;51.032;9.410;2023-04-28T02:30:41;98846.75;;;6.81;74.54
71573;BME280;59408;51.032;9.410;2023-04-28T02:33:09;98841.31;;;6.81;74.13
71573;BME280;59408;51.032;9.410;2023-04-28T02:35:35;98833.97;;;6.82;75.33
71573;BME280;59408;51.032;9.410;2023-04-28T02:38:02;98828.56;;;6.82;78.34
71573;BME280;59408;51.032;9.410;2023-04-28T02:40:28;98835.25;;;6.76;81.09
71573;BME280;59408;51.032;9.410;2023-04-28T02:42:55;98836.22;;;6.71;84.05
71573;BME280;59408;51.032;9.410;2023-04-28T02:45:21;98822.97;;;6.61;85.68
71573;BME280;59408;51.032;9.410;2023-04-28T02:47:48;98819.13;;;6.54;86.38
71573;BME280;59408;51.032;9.410;2023-04-28T02:50:16;98825.34;;;6.45;87.32
71573;BME280;59408;51.032;9.410;2023-04-28T02:52:43;98820.88;;;6.41;85.67
71573;BME280;59408;51.032;9.410;2023-04-28T02:55:10;98822.78;;;6.40;84.62
71573;BME280;59408;51.032;9.410;2023-04-28T02:57:36;98818.00;;;6.37;86.27
71573;BME280;59408;51.032;9.410;2023-04-28T03:00:04;98813.22;;;6.34;86.36
71573;BME280;59408;51.032;9.410;2023-04-28T03:02:31;98824.34;;;6.33;88.13
71573;BME280;59408;51.032;9.410;2023-04-28T03:04:57;98826.09;;;6.29;88.42
71573;BME280;59408;51.032;9.410;2023-04-28T03:07:25;98828.03;;;6.28;87.06
71573;BME280;59408;51.032;9.410;2023-04-28T03:09:52;98821.31;;;6.26;89.79
71573;BME280;59408;51.032;9.410;2023-04-28T03:12:19;98819.22;;;6.23;91.12
71573;BME280;59408;51.032;9.410;2023-04-28T03:14:45;98809.81;;;6.20;90.84
71573;BME280;59408;51.032;9.410;2023-04-28T03:17:12;98812.38;;;6.17;90.18
71573;BME280;59408;51.032;9.410;2023-04-28T03:19:38;98811.09;;;6.14;90.25
71573;BME280;59408;51.032;9.410;2023-04-28T03:22:05;98808.69;;;6.12;90.72
71573;BME280;59408;51.032;9.410;2023-04-28T03:24:33;98804.38;;;6.11;91.27
71573;BME280;59408;51.032;9.410;2023-04-28T03:26:59;98802.31;;;6.08;89.62
71573;BME280;59408;51.032;9.410;2023-04-28T03:29:26;98800.41;;;6.09;90.95
71573;BME280;59408;51.032;9.410;2023-04-28T03:31:52;98793.22;;;6.04;91.02
71573;BME280;59408;51.032;9.410;2023-04-28T03:34:19;98797.53;;;6.05;92.65
71573;BME280;59408;51.032;9.410;2023-04-28T03:36:45;98793.22;;;6.04;92.88
71573;BME280;59408;51.032;9.410;2023-04-28T03:39:12;98784.63;;;6.02;94.23
71573;BME280;59408;51.032;9.410;2023-04-28T03:41:40;98794.19;;;6.00;92.77
71573;BME280;59408;51.032;9.410;2023-04-28T03:44:06;98787.81;;;6.04;94.05
71573;BME280;59408;51.032;9.410;2023-04-28T03:46:33;98775.22;;;6.00;95.76
71573;BME280;59408;51.032;9.410;2023-04-28T03:48:59;98772.84;;;5.98;95.35
71573;BME280;59408;51.032;9.410;2023-04-28T03:51:26;98773.44;;;5.95;97.78
71573;BME280;59408;51.032;9.410;2023-04-28T03:53:53;98770.09;;;5.90;99.22
71573;BME280;59408;51.032;9.410;2023-04-28T03:56:19;98773.13;;;5.88;99.28
71573;BME280;59408;51.032;9.410;2023-04-28T03:58:47;98773.44;;;5.87;99.00
71573;BME280;59408;51.032;9.410;2023-04-28T04:01:14;98772.16;;;5.84;100.00
71573;BME280;59408;51.032;9.410;2023-04-28T04:03:40;98773.09;;;5.80;100.00
71573;BME280;59408;51.032;9.410;2023-04-28T04:06:07;98772.31;;;5.79;100.00
71573;BME280;59408;51.032;9.410;2023-04-28T04:08:34;98773.41;;;5.78;99.27
71573;BME280;59408;51.032;9.410;2023-04-28T04:11:01;98778.81;;;5.78;100.00
71573;BME280;59408;51.032;9.410;2023-04-28T04:13:28;98772.75;;;5.72;100.00
71573;BME280;59408;51.032;9.410;2023-04-28T04:15:56;98770.97;;;5.68;100.00
71573;BME280;59408;51.032;9.410;2023-04-28T04:18:22;98767.78;;;5.66;100.00
71573;BME280;59408;51.032;9.410;2023-04-28T04:20:49;98764.78;;;5.67;100.00
71573;BME280;59408;51.032;9.410;2023-04-28T04:23:15;98767.47;;;5.67;100.00
71573;BME280;59408;51.032;9.410;2023-04-28T04:25:42;98763.97;;;5.67;100.00
71573;BME280;59408;51.032;9.410;2023-04-28T04:28:08;98768.59;;;5.66;100.00
71573;BME280;59408;51.032;9.410;2023-04-28T04:30:35;98762.72;;;5.64;100.00
71573;BME280;59408;51.032;9.410;2023-04-28T04:33:03;98757.59;;;5.63;100.00
71573;BME280;59408;51.032;9.410;2023-04-28T04:35:30;98761.91;;;5.64;100.00
71573;BME280;59408;51.032;9.410;2023-04-28T04:37:56;98754.91;;;5.63;100.00
71573;BME280;59408;51.032;9.410;2023-04-28T04:40:23;98745.97;;;5.62;100.00
71573;BME280;59408;51.032;9.410;2023-04-28T04:42:49;98752.03;;;5.68;100.00
71573;BME280;59408;51.032;9.410;2023-04-28T04:45:16;98758.56;;;5.67;100.00
71573;BME280;59408;51.032;9.410;2023-04-28T04:47:43;98752.34;;;5.66;100.00
71573;BME280;59408;51.032;9.410;2023-04-28T04:50:11;98746.13;;;5.66;100.00
71573;BME280;59408;51.032;9.410;2023-04-28T04:52:37;98746.94;;;5.66;100.00
71573;BME280;59408;51.032;9.410;2023-04-28T04:55:05;98744.88;;;5.63;100.00
71573;BME280;59408;51.032;9.410;2023-04-28T04:57:32;98741.38;;;5.63;100.00
71573;BME280;59408;51.032;9.410;2023-04-28T04:59:58;98738.66;;;5.63;100.00
71573;BME280;59408;51.032;9.410;2023-04-28T05:02:25;98738.50;;;5.68;100.00
71573;BME280;59408;51.032;9.410;2023-04-28T05:04:52;98742.19;;;5.72;100.00
71573;BME280;59408;51.032;9.410;2023-04-28T05:07:24;98739.94;;;5.74;100.00
71573;BME280;59408;51.032;9.410;2023-04-28T05:09:51;98741.25;;;5.76;100.00
71573;BME280;59408;51.032;9.410;2023-04-28T05:12:18;98749.06;;;5.78;100.00
71573;BME280;59408;51.032;9.410;2023-04-28T05:14:44;98737.91;;;5.80;100.00
71573;BME280;59408;51.032;9.410;2023-04-28T05:17:11;98740.63;;;5.80;100.00
71573;BME280;59408;51.032;9.410;2023-04-28T05:19:37;98739.66;;;5.84;100.00
71573;BME280;59408;51.032;9.410;2023-04-28T05:22:04;98741.25;;;5.85;100.00
71573;BME280;59408;51.032;9.410;2023-04-28T05:24:32;98739.84;;;5.88;100.00
71573;BME280;59408;51.032;9.410;2023-04-28T05:26:58;98736.97;;;5.93;100.00
71573;BME280;59408;51.032;9.410;2023-04-28T05:29:25;98731.75;;;5.96;100.00
71573;BME280;59408;51.032;9.410;2023-04-28T05:31:52;98745.13;;;6.01;100.00
71573;BME280;59408;51.032;9.410;2023-04-28T05:34:18;98736.84;;;6.06;100.00
71573;BME280;59408;51.032;9.410;2023-04-28T05:36:45;98735.59;;;6.12;100.00
71573;BME280;59408;51.032;9.410;2023-04-28T05:39:12;98727.78;;;6.20;100.00
71573;BME280;59408;51.032;9.410;2023-04-28T05:41:40;98737.97;;;6.23;100.00
71573;BME280;59408;51.032;9.410;2023-04-28T05:44:06;98731.94;;;6.26;100.00
71573;BME280;59408;51.032;9.410;2023-04-28T05:46:33;98733.22;;;6.28;100.00
71573;BME280;59408;51.032;9.410;2023-04-28T05:49:00;98729.06;;;6.31;100.00
71573;BME280;59408;51.032;9.410;2023-04-28T05:51:26;98736.09;;;6.32;100.00
71573;BME280;59408;51.032;9.410;2023-04-28T05:53:53;98747.53;;;6.29;100.00
71573;BME280;59408;51.032;9.410;2023-04-28T05:56:19;98743.88;;;6.25;100.00
71573;BME280;59408;51.032;9.410;2023-04-28T05:58:47;98743.88;;;6.25;100.00
71573;BME280;59408;51.032;9.410;2023-04-28T06:01:14;98749.94;;;6.30;100.00
71573;BME280;59408;51.032;9.410;2023-04-28T06:03:40;98740.69;;;6.40;100.00
71573;BME280;59408;51.032;9.410;2023-04-28T06:06:08;98738.00;;;6.48;100.00
71573;BME280;59408;51.032;9.410;2023-04-28T06:08:35;98734.47;;;6.57;100.00
71573;BME280;59408;51.032;9.410;2023-04-28T06:11:02;98743.41;;;6.57;100.00
71573;BME280;59408;51.032;9.410;2023-04-28T06:13:29;98732.09;;;6.64;100.00
71573;BME280;59408;51.032;9.410;2023-04-28T06:15:57;98725.69;;;6.77;100.00
71573;BME280;59408;51.032;9.410;2023-04-28T06:18:24;98717.56;;;6.77;100.00
71573;BME280;59408;51.032;9.410;2023-04-28T06:20:50;98715.50;;;6.82;100.00
71573;BME280;59408;51.032;9.410;2023-04-28T06:23:17;98712.94;;;6.86;100.00
71573;BME280;59408;51.032;9.410;2023-04-28T06:25:44;98708.31;;;6.86;100.00
71573;BME280;59408;51.032;9.410;2023-04-28T06:28:10;98705.59;;;6.86;100.00
71573;BME280;59408;51.032;9.410;2023-04-28T06:30:37;98709.28;;;6.82;100.00
71573;BME280;59408;51.032;9.410;2023-04-28T06:33:05;98702.91;;;6.78;100.00
71573;BME280;59408;51.032;9.410;2023-04-28T06:35:32;98704.81;;;6.69;100.00
71573;BME280;59408;51.032;9.410;2023-04-28T06:37:58;98715.34;;;6.70;100.00
71573;BME280;59408;51.032;9.410;2023-04-28T06:40:25;98712.03;;;6.65;100.00
71573;BME280;59408;51.032;9.410;2023-04-28T06:42:52;98714.41;;;6.58;100.00
71573;BME280;59408;51.032;9.410;2023-04-28T06:45:18;98714.25;;;6.54;100.00
71573;BME280;59408;51.032;9.410;2023-04-28T06:47:45;98713.16;;;6.55;100.00
71573;BME280;59408;51.032;9.410;2023-04-28T06:50:13;98715.06;;;6.55;100.00
71573;BME280;59408;51.032;9.410;2023-04-28T06:52:40;98714.56;;;6.53;100.00
71573;BME280;59408;51.032;9.410;2023-04-28T06:55:07;98726.69;;;6.55;100.00
71573;BME280;59408;51.032;9.410;2023-04-28T06:57:34;98714.25;;;6.54;100.00
71573;BME280;59408;51.032;9.410;2023-04-28T07:00:01;98708.97;;;6.58;100.00
71573;BME280;59408;51.032;9.410;2023-04-28T07:02:28;98709.28;;;6.56;100.00
71573;BME280;59408;51.032;9.410;2023-04-28T07:04:54;98711.38;;;6.59;100.00
71573;BME280;59408;51.032;9.410;2023-04-28T07:07:22;98708.34;;;6.61;100.00
71573;BME280;59408;51.032;9.410;2023-04-28T07:09:49;98717.59;;;6.68;100.00
71573;BME280;59408;51.032;9.410;2023-04-28T07:12:15;98715.19;;;6.67;100.00
71573;BME280;59408;51.032;9.410;2023-04-28T07:14:42;98723.97;;;6.64;100.00
71573;BME280;59408;51.032;9.410;2023-04-28T07:17:08;98727.94;;;6.66;100.00
71573;BME280;59408;51.032;9.410;2023-04-28T07:19:35;98722.19;;;6.68;100.00
71573;BME280;59408;51.032;9.410;2023-04-28T07:22:01;98718.38;;;6.69;100.00
71573;BME280;59408;51.032;9.410;2023-04-28T07:24:29;98721.72;;;6.74;100.00
71573;BME280;59408;51.032;9.410;2023-04-28T07:26:56;98714.38;;;6.75;100.00
71573;BME280;59408;51.032;9.410;2023-04-28T07:29:23;98707.03;;;6.75;100.00
71573;BME280;59408;51.032;9.410;2023-04-28T07:31:50;98708.63;;;6.76;100.00
71573;BME280;59408;51.032;9.410;2023-04-28T07:34:16;98703.69;;;6.78;100.00
71573;BME280;59408;51.032;9.410;2023-04-28T07:36:43;98696.19;;;6.84;100.00
71573;BME280;59408;51.032;9.410;2023-04-28T07:39:10;98700.50;;;6.85;100.00
71573;BME280;59408;51.032;9.410;2023-04-28T07:41:38;98706.22;;;6.92;100.00
71573;BME280;59408;51.032;9.410;2023-04-28T07:44:05;98697.75;;;6.94;100.00
71573;BME280;59408;51.032;9.410;2023-04-28T07:46:32;98707.47;;;6.95;100.00
71573;BME280;59408;51.032;9.410;2023-04-28T07:48:59;98709.69;;;7.01;100.00
71573;BME280;59408;51.032;9.410;2023-04-28T07:51:25;98699.31;;;7.03;100.00
71573;BME280;59408;51.032;9.410;2023-04-28T07:53:52;98681.91;;;7.13;100.00
71573;BME280;59408;51.032;9.410;2023-04-28T07:56:19;98676.66;;;7.16;100.00
71573;BME280;59408;51.032;9.410;2023-04-28T07:58:47;98664.91;;;7.42;100.00
71573;BME280;59408;51.032;9.410;2023-04-28T08:01:13;98649.09;;;7.73;100.00
71573;BME280;59408;51.032;9.410;2023-04-28T08:03:40;98645.44;;;8.11;100.00
71573;BME280;59408;51.032;9.410;2023-04-28T08:06:07;98640.78;;;8.53;100.00
71573;BME280;59408;51.032;9.410;2023-04-28T08:08:34;98645.63;;;8.80;100.00
71573;BME280;59408;51.032;9.410;2023-04-28T08:11:01;98642.09;;;8.80;100.00
71573;BME280;59408;51.032;9.410;2023-04-28T08:13:27;98636.56;;;8.88;100.00
71573;BME280;59408;51.032;9.410;2023-04-28T08:15:55;98637.81;;;9.03;100.00
71573;BME280;59408;51.032;9.410;2023-04-28T08:18:22;98639.63;;;9.11;99.09
71573;BME280;59408;51.032;9.410;2023-04-28T08:20:49;98643.44;;;9.19;98.98
71573;BME280;59408;51.032;9.410;2023-04-28T08:23:15;98646.81;;;9.16;96.46
71573;BME280;59408;51.032;9.410;2023-04-28T08:25:42;98634.09;;;9.07;98.41
71573;BME280;59408;51.032;9.410;2023-04-28T08:28:08;98640.34;;;9.08;98.33
71573;BME280;59408;51.032;9.410;2023-04-28T08:30:35;98633.34;;;9.19;99.01
71573;BME280;59408;51.032;9.410;2023-04-28T08:33:03;98637.09;;;9.27;97.75
71573;BME280;59408;51.032;9.410;2023-04-28T08:35:32;98640.50;;;9.36;97.94
71573;BME280;59408;51.032;9.410;2023-04-28T08:37:58;98645.16;;;9.35;98.94
71573;BME280;59408;51.032;9.410;2023-04-28T08:40:25;98652.63;;;9.38;98.95
71573;BME280;59408;51.032;9.410;2023-04-28T08:42:54;98651.25;;;9.32;98.86
71573;BME280;59408;51.032;9.410;2023-04-28T08:45:22;98645.25;;;9.27;98.42
71573;BME280;59408;51.032;9.410;2023-04-28T08:47:50;98653.38;;;9.14;97.82
71573;BME280;59408;51.032;9.410;2023-04-28T08:50:21;98649.63;;;9.07;98.31
71573;BME280;59408;51.032;9.410;2023-04-28T08:52:51;98642.03;;;9.12;98.70
71573;BME280;59408;51.032;9.410;2023-04-28T08:55:18;98644.09;;;9.16;98.80
71573;BME280;59408;51.032;9.410;2023-04-28T08:57:48;98641.94;;;9.21;98.85
71573;BME280;59408;51.032;9.410;2023-04-28T09:00:15;98648.22;;;9.34;99.15
71573;BME280;59408;51.032;9.410;2023-04-28T09:02:42;98651.38;;;9.36;97.48
71573;BME280;59408;51.032;9.410;2023-04-28T09:05:10;98652.41;;;9.43;97.86
71573;BME280;59408;51.032;9.410;2023-04-28T09:07:39;98652.16;;;9.48;97.83
71573;BME280;59408;51.032;9.410;2023-04-28T09:10:17;98646.97;;;9.43;96.95
71573;BME280;59408;51.032;9.410;2023-04-28T09:12:45;98655.00;;;9.40;96.81
71573;BME280;59408;51.032;9.410;2023-04-28T09:15:25;98662.63;;;9.34;97.91
71573;BME280;59408;51.032;9.410;2023-04-28T09:17:52;98667.59;;;9.32;98.48
71573;BME280;59408;51.032;9.410;2023-04-28T09:20:19;98672.25;;;9.32;99.06
71573;BME280;59408;51.032;9.410;2023-04-28T09:22:47;98674.75;;;9.37;98.29
71573;BME280;59408;51.032;9.410;2023-04-28T09:25:15;98668.50;;;9.24;99.57
71573;BME280;59408;51.032;9.410;2023-04-28T09:27:42;98663.97;;;9.40;100.00
71573;BME280;59408;51.032;9.410;2023-04-28T09:30:09;98663.28;;;9.43;100.00
71573;BME280;59408;51.032;9.410;2023-04-28T09:32:36;98669.84;;;9.30;100.00
71573;BME280;59408;51.032;9.410;2023-04-28T09:35:03;98667.03;;;9.27;100.00
71573;BME280;59408;51.032;9.410;2023-04-28T09:37:30;98668.63;;;9.28;100.00
71573;BME280;59408;51.032;9.410;2023-04-28T09:40:04;98668.66;;;9.07;100.00
71573;BME280;59408;51.032;9.410;2023-04-28T09:42:33;98665.72;;;9.00;100.00
71573;BME280;59408;51.032;9.410;2023-04-28T09:45:00;98667.59;;;8.87;100.00
71573;BME280;59408;51.032;9.410;2023-04-28T09:47:28;98666.94;;;8.90;100.00
71573;BME280;59408;51.032;9.410;2023-04-28T09:49:56;98666.56;;;8.80;100.00
71573;BME280;59408;51.032;9.410;2023-04-28T09:52:23;98653.94;;;8.63;100.00
71573;BME280;59408;51.032;9.410;2023-04-28T09:54:50;98642.28;;;8.74;100.00
71573;BME280;59408;51.032;9.410;2023-04-28T09:57:19;98635.22;;;9.06;100.00
71573;BME280;59408;51.032;9.410;2023-04-28T09:59:49;98612.09;;;9.73;100.00
71573;BME280;59408;51.032;9.410;2023-04-28T10:02:16;98594.75;;;10.61;100.00
71573;BME280;59408;51.032;9.410;2023-04-28T10:05:04;98593.25;;;11.43;100.00
71573;BME280;59408;51.032;9.410;2023-04-28T10:07:32;98593.94;;;11.90;99.95
71573;BME280;59408;51.032;9.410;2023-04-28T10:09:59;98604.13;;;11.93;93.16
71573;BME280;59408;51.032;9.410;2023-04-28T10:12:27;98608.81;;;12.12;93.11
71573;BME280;59408;51.032;9.410;2023-04-28T10:14:54;98616.56;;;12.26;89.36
71573;BME280;59408;51.032;9.410;2023-04-28T10:17:21;98613.50;;;12.11;91.09
71573;BME280;59408;51.032;9.410;2023-04-28T10:19:49;98611.16;;;11.75;92.29
71573;BME280;59408;51.032;9.410;2023-04-28T10:22:31;98621.88;;;11.49;92.71
71573;BME280;59408;51.032;9.410;2023-04-28T10:25:24;98620.06;;;11.21;92.11
71573;BME280;59408;51.032;9.410;2023-04-28T10:27:53;98611.88;;;11.37;93.04
71573;BME280;59408;51.032;9.410;2023-04-28T10:30:20;98599.06;;;11.41;94.83
71573;BME280;59408;51.032;9.410;2023-04-28T10:33:22;98602.69;;;11.45;93.17
71573;BME280;59408;51.032;9.410;2023-04-28T10:35:50;98603.28;;;11.54;92.43
71573;BME280;59408;51.032;9.410;2023-04-28T10:38:17;98600.81;;;11.49;91.78
71573;BME280;59408;51.032;9.410;2023-04-28T10:40:45;98608.22;;;11.49;92.54
71573;BME280;59408;51.032;9.410;2023-04-28T10:43:32;98603.94;;;11.32;91.54
71573;BME280;59408;51.032;9.410;2023-04-28T10:46:06;98606.22;;;11.14;91.11
71573;BME280;59408;51.032;9.410;2023-04-28T10:48:54;98611.25;;;11.12;93.21
71573;BME280;59408;51.032;9.410;2023-04-28T10:51:34;98610.22;;;11.01;95.58
71573;BME280;59408;51.032;9.410;2023-04-28T10:54:27;98607.31;;;10.66;99.04
71573;BME280;59408;51.032;9.410;2023-04-28T10:57:15;98604.75;;;10.57;99.94
71573;BME280;59408;51.032;9.410;2023-04-28T10:59:43;98603.69;;;10.46;99.59
71573;BME280;59408;51.032;9.410;2023-04-28T11:05:17;98601.31;;;10.60;99.03
71573;BME280;59408;51.032;9.410;2023-04-28T11:11:16;98595.06;;;11.04;98.10
71573;BME280;59408;51.032;9.410;2023-04-28T11:13:44;98585.69;;;11.20;94.51
71573;BME280;59408;51.032;9.410;2023-04-28T11:16:13;98589.63;;;11.54;95.70
71573;BME280;59408;51.032;9.410;2023-04-28T11:18:58;98586.66;;;11.79;92.23
71573;BME280;59408;51.032;9.410;2023-04-28T11:21:25;98576.69;;;12.05;92.56
71573;BME280;59408;51.032;9.410;2023-04-28T11:23:52;98570.72;;;12.00;90.45
71573;BME280;59408;51.032;9.410;2023-04-28T11:26:19;98562.28;;;12.47;91.80
71573;BME280;59408;51.032;9.410;2023-04-28T11:28:47;98568.00;;;12.84;88.70
71573;BME280;59408;51.032;9.410;2023-04-28T11:31:17;98568.59;;;12.51;87.35
71573;BME280;59408;51.032;9.410;2023-04-28T11:33:50;98569.50;;;12.36;90.54
71573;BME280;59408;51.032;9.410;2023-04-28T11:36:28;98572.09;;;12.09;89.63
71573;BME280;59408;51.032;9.410;2023-04-28T11:38:55;98568.84;;;12.23;89.77
71573;BME280;59408;51.032;9.410;2023-04-28T11:41:22;98563.03;;;12.25;90.94
71573;BME280;59408;51.032;9.410;2023-04-28T11:43:49;98563.00;;;12.44;93.29
71573;BME280;59408;51.032;9.410;2023-04-28T11:46:18;98565.47;;;12.30;90.09
71573;BME280;59408;51.032;9.410;2023-04-28T11:48:45;98568.72;;;12.16;90.18
71573;BME280;59408;51.032;9.410;2023-04-28T11:51:32;98568.41;;;12.21;90.30
71573;BME280;59408;51.032;9.410;2023-04-28T11:53:59;98557.34;;;12.33;89.27
71573;BME280;59408;51.032;9.410;2023-04-28T11:56:26;98554.22;;;12.54;90.62
71573;BME280;59408;51.032;9.410;2023-04-28T11:59:00;98549.81;;;12.95;88.58
71573;BME280;59408;51.032;9.410;2023-04-28T12:01:31;98541.22;;;13.19;87.83
71573;BME280;59408;51.032;9.410;2023-04-28T12:03:57;98544.25;;;13.64;87.50
71573;BME280;59408;51.032;9.410;2023-04-28T12:06:24;98549.84;;;14.38;85.43
71573;BME280;59408;51.032;9.410;2023-04-28T12:08:51;98539.94;;;14.63;80.20
71573;BME280;59408;51.032;9.410;2023-04-28T12:11:17;98543.88;;;15.64;83.00
71573;BME280;59408;51.032;9.410;2023-04-28T12:14:04;98547.03;;;15.70;77.29
71573;BME280;59408;51.032;9.410;2023-04-28T12:16:40;98538.31;;;15.02;78.36
71573;BME280;59408;51.032;9.410;2023-04-28T12:19:07;98543.56;;;15.18;77.95
71573;BME280;59408;51.032;9.410;2023-04-28T12:21:34;98544.75;;;14.77;78.19
71573;BME280;59408;51.032;9.410;2023-04-28T12:24:14;98554.00;;;14.24;80.36
71573;BME280;59408;51.032;9.410;2023-04-28T12:26:41;98541.38;;;13.83;83.12
71573;BME280;59408;51.032;9.410;2023-04-28T12:29:08;98560.31;;;13.39;85.64
71573;BME280;59408;51.032;9.410;2023-04-28T12:31:48;98555.75;;;13.23;87.66
71573;BME280;59408;51.032;9.410;2023-04-28T12:34:14;98549.28;;;13.09;87.11
71573;BME280;59408;51.032;9.410;2023-04-28T12:36:42;98544.38;;;13.21;87.18
71573;BME280;59408;51.032;9.410;2023-04-28T12:39:12;98550.34;;;13.27;88.11
71573;BME280;59408;51.032;9.410;2023-04-28T12:41:39;98557.69;;;12.97;88.11
71573;BME280;59408;51.032;9.410;2023-04-28T12:44:05;98563.41;;;12.88;88.66
71573;BME280;59408;51.032;9.410;2023-04-28T12:46:32;98561.69;;;12.57;89.85
71573;BME280;59408;51.032;9.410;2023-04-28T12:49:00;98552.88;;;12.67;90.99
71573;BME280;59408;51.032;9.410;2023-04-28T12:51:27;98555.00;;;12.55;91.66
71573;BME280;59408;51.032;9.410;2023-04-28T12:53:54;98568.72;;;12.58;92.66
71573;BME280;59408;51.032;9.410;2023-04-28T12:56:20;98565.19;;;12.58;93.20
71573;BME280;59408;51.032;9.410;2023-04-28T12:58:47;98558.03;;;12.49;93.83
71573;BME280;59408;51.032;9.410;2023-04-28T13:01:13;98565.03;;;12.47;93.41
71573;BME280;59408;51.032;9.410;2023-04-28T13:03:40;98564.25;;;12.27;93.92
71573;BME280;59408;51.032;9.410;2023-04-28T13:06:08;98568.25;;;11.95;95.94
71573;BME280;59408;51.032;9.410;2023-04-28T13:08:35;98573.22;;;12.08;96.01
71573;BME280;59408;51.032;9.410;2023-04-28T13:11:02;98566.66;;;12.13;95.29
71573;BME280;59408;51.032;9.410;2023-04-28T13:13:38;98565.28;;;12.19;95.95
71573;BME280;59408;51.032;9.410;2023-04-28T13:16:05;98564.88;;;12.21;96.61